sensor_id;sensor_type;location;lat;lon;timestamp;pressure;altitude;pressure_sealevel;temperature;humidity
55291;BME280;41155;39.768;2.712;2023-03-04T00:00:37;101759.53;;;6.79;79.97
55291;BME280;41155;39.768;2.712;2023-03-04T00:03:07;101737.41;;;6.71;80.20
55291;BME280;41155;39.768;2.712;2023-03-04T00:05:35;101755.63;;;6.82;80.29
55291;BME280;41155;39.768;2.712;2023-03-04T00:08:01;101739.09;;;6.72;80.01
55291;BME280;41155;39.768;2.712;2023-03-04T00:10:26;101763.09;;;6.93;80.02
55291;BME280;41155;39.768;2.712;2023-03-04T00:12:52;101747.81;;;6.87;79.62
55291;BME280;41155;39.768;2.712;2023-03-04T00:15:17;101764.00;;;7.07;79.32
55291;BME280;41155;39.768;2.712;2023-03-04T00:17:43;101746.63;;;7.03;79.16
55291;BME280;41155;39.768;2.712;2023-03-04T00:20:10;101740.63;;;7.08;78.48
55291;BME280;41155;39.768;2.712;2023-03-04T00:22:36;101750.78;;;7.12;77.80
55291;BME280;41155;39.768;2.712;2023-03-04T00:25:02;101715.19;;;6.90;77.68
55291;BME280;41155;39.768;2.712;2023-03-04T00:27:28;101762.53;;;7.11;77.15
55291;BME280;41155;39.768;2.712;2023-03-04T00:29:55;101741.22;;;6.96;76.92
55291;BME280;41155;39.768;2.712;2023-03-04T00:32:20;101747.22;;;6.98;76.68
55291;BME280;41155;39.768;2.712;2023-03-04T00:34:46;101763.97;;;7.00;76.71
55291;BME280;41155;39.768;2.712;2023-03-04T00:37:11;101761.69;;;6.97;77.21
55291;BME280;41155;39.768;2.712;2023-03-04T00:39:37;101771.41;;;7.05;77.22
55291;BME280;41155;39.768;2.712;2023-03-04T00:42:02;101746.59;;;6.96;77.59
55291;BME280;41155;39.768;2.712;2023-03-04T00:44:28;101756.97;;;7.06;77.48
55291;BME280;41155;39.768;2.712;2023-03-04T00:46:53;101764.22;;;7.12;77.20
55291;BME280;41155;39.768;2.712;2023-03-04T00:49:19;101757.16;;;7.11;77.10
55291;BME280;41155;39.768;2.712;2023-03-04T00:51:45;101744.78;;;7.04;77.04
55291;BME280;41155;39.768;2.712;2023-03-04T00:54:10;101740.22;;;7.04;77.11
55291;BME280;41155;39.768;2.712;2023-03-04T00:56:36;101739.19;;;6.98;76.87
55291;BME280;41155;39.768;2.712;2023-03-04T00:59:01;101752.00;;;7.10;76.96
55291;BME280;41155;39.768;2.712;2023-03-04T01:01:27;101724.06;;;6.91;76.54
55291;BME280;41155;39.768;2.712;2023-03-04T01:03:52;101744.94;;;6.89;76.79
55291;BME280;41155;39.768;2.712;2023-03-04T01:06:19;101712.66;;;6.75;76.96
55291;BME280;41155;39.768;2.712;2023-03-04T01:08:45;101713.47;;;6.69;77.04
55291;BME280;41155;39.768;2.712;2023-03-04T01:11:10;101746.00;;;6.94;77.19
55291;BME280;41155;39.768;2.712;2023-03-04T01:13:36;101743.66;;;6.85;77.49
55291;BME280;41155;39.768;2.712;2023-03-04T01:16:01;101748.03;;;6.86;77.82
55291;BME280;41155;39.768;2.712;2023-03-04T01:18:28;101738.69;;;6.75;77.87
55291;BME280;41155;39.768;2.712;2023-03-04T01:20:53;101741.81;;;6.85;77.52
55291;BME280;41155;39.768;2.712;2023-03-04T01:23:19;101725.84;;;6.70;76.99
55291;BME280;41155;39.768;2.712;2023-03-04T01:25:44;101746.97;;;6.80;77.26
55291;BME280;41155;39.768;2.712;2023-03-04T01:28:10;101731.44;;;6.75;76.93
55291;BME280;41155;39.768;2.712;2023-03-04T01:30:36;101724.63;;;6.66;77.54
55291;BME280;41155;39.768;2.712;2023-03-04T01:33:01;101730.81;;;6.67;77.75
55291;BME280;41155;39.768;2.712;2023-03-04T01:35:27;101714.47;;;6.62;78.20
55291;BME280;41155;39.768;2.712;2023-03-04T01:37:52;101731.44;;;6.69;77.75
55291;BME280;41155;39.768;2.712;2023-03-04T01:40:18;101711.34;;;6.51;78.35
55291;BME280;41155;39.768;2.712;2023-03-04T01:42:44;101727.94;;;6.68;78.29
55291;BME280;41155;39.768;2.712;2023-03-04T01:45:13;101726.25;;;6.61;78.89
55291;BME280;41155;39.768;2.712;2023-03-04T01:47:40;101723.38;;;6.69;79.14
55291;BME280;41155;39.768;2.712;2023-03-04T01:50:18;101718.69;;;6.84;78.39
55291;BME280;41155;39.768;2.712;2023-03-04T01:52:44;101710.63;;;6.84;77.06
55291;BME280;41155;39.768;2.712;2023-03-04T01:55:20;101708.94;;;6.76;77.41
55291;BME280;41155;39.768;2.712;2023-03-04T01:57:47;101711.03;;;6.81;77.17
55291;BME280;41155;39.768;2.712;2023-03-04T02:00:17;101704.44;;;6.77;77.80
55291;BME280;41155;39.768;2.712;2023-03-04T02:02:45;101669.25;;;6.59;77.38
55291;BME280;41155;39.768;2.712;2023-03-04T02:05:10;101710.38;;;6.72;78.09
55291;BME280;41155;39.768;2.712;2023-03-04T02:07:36;101691.59;;;6.72;78.10
55291;BME280;41155;39.768;2.712;2023-03-04T02:10:03;101696.38;;;6.77;77.75
55291;BME280;41155;39.768;2.712;2023-03-04T02:12:29;101697.38;;;6.76;77.96
55291;BME280;41155;39.768;2.712;2023-03-04T02:14:54;101682.31;;;6.68;77.65
55291;BME280;41155;39.768;2.712;2023-03-04T02:17:27;101693.25;;;6.73;78.41
55291;BME280;41155;39.768;2.712;2023-03-04T02:22:37;101682.50;;;6.73;78.37
55291;BME280;41155;39.768;2.712;2023-03-04T02:25:16;101691.59;;;6.79;78.27
55291;BME280;41155;39.768;2.712;2023-03-04T02:27:43;101689.31;;;6.76;78.35
55291;BME280;41155;39.768;2.712;2023-03-04T02:30:10;101692.44;;;6.79;77.98
55291;BME280;41155;39.768;2.712;2023-03-04T02:32:37;101680.44;;;6.69;78.04
55291;BME280;41155;39.768;2.712;2023-03-04T02:35:02;101686.66;;;6.76;78.30
55291;BME280;41155;39.768;2.712;2023-03-04T02:37:28;101691.38;;;6.74;78.33
55291;BME280;41155;39.768;2.712;2023-03-04T02:39:53;101685.19;;;6.73;78.11
55291;BME280;41155;39.768;2.712;2023-03-04T02:42:19;101680.41;;;6.62;77.86
55291;BME280;41155;39.768;2.712;2023-03-04T02:44:45;101678.75;;;6.54;78.57
55291;BME280;41155;39.768;2.712;2023-03-04T02:47:16;101633.59;;;6.17;78.72
55291;BME280;41155;39.768;2.712;2023-03-04T02:49:42;101647.69;;;6.32;79.13
55291;BME280;41155;39.768;2.712;2023-03-04T02:52:18;101671.28;;;6.50;78.97
55291;BME280;41155;39.768;2.712;2023-03-04T02:54:44;101644.59;;;6.35;79.31
55291;BME280;41155;39.768;2.712;2023-03-04T02:57:11;101650.63;;;6.44;79.41
55291;BME280;41155;39.768;2.712;2023-03-04T02:59:39;101667.19;;;6.54;79.50
55291;BME280;41155;39.768;2.712;2023-03-04T03:02:05;101656.00;;;6.50;79.67
55291;BME280;41155;39.768;2.712;2023-03-04T03:04:31;101658.69;;;6.50;79.54
55291;BME280;41155;39.768;2.712;2023-03-04T03:06:57;101656.00;;;6.50;79.42
55291;BME280;41155;39.768;2.712;2023-03-04T03:09:23;101599.34;;;6.19;79.53
55291;BME280;41155;39.768;2.712;2023-03-04T03:11:48;101647.34;;;6.48;79.80
55291;BME280;41155;39.768;2.712;2023-03-04T03:14:14;101621.09;;;6.37;79.88
55291;BME280;41155;39.768;2.712;2023-03-04T03:16:40;101657.06;;;6.56;80.11
55291;BME280;41155;39.768;2.712;2023-03-04T03:19:05;101624.59;;;6.31;80.52
55291;BME280;41155;39.768;2.712;2023-03-04T03:21:31;101654.59;;;6.54;80.59
55291;BME280;41155;39.768;2.712;2023-03-04T03:23:56;101624.38;;;6.39;80.13
55291;BME280;41155;39.768;2.712;2023-03-04T03:26:21;101654.19;;;6.64;79.38
55291;BME280;41155;39.768;2.712;2023-03-04T03:28:47;101621.34;;;6.42;79.50
55291;BME280;41155;39.768;2.712;2023-03-04T03:31:13;101642.19;;;6.53;79.27
55291;BME280;41155;39.768;2.712;2023-03-04T03:33:39;101648.41;;;6.67;78.48
55291;BME280;41155;39.768;2.712;2023-03-04T03:36:05;101619.25;;;6.44;78.61
55291;BME280;41155;39.768;2.712;2023-03-04T03:38:30;101651.69;;;6.56;79.03
55291;BME280;41155;39.768;2.712;2023-03-04T03:40:56;101648.34;;;6.47;79.53
55291;BME280;41155;39.768;2.712;2023-03-04T03:43:22;101657.63;;;6.45;79.88
55291;BME280;41155;39.768;2.712;2023-03-04T03:45:47;101655.34;;;6.42;80.26
55291;BME280;41155;39.768;2.712;2023-03-04T03:48:12;101657.44;;;6.46;80.19
55291;BME280;41155;39.768;2.712;2023-03-04T03:50:38;101633.03;;;6.28;80.88
55291;BME280;41155;39.768;2.712;2023-03-04T03:53:04;101645.66;;;6.34;80.31
55291;BME280;41155;39.768;2.712;2023-03-04T03:55:29;101633.84;;;6.28;80.20
55291;BME280;41155;39.768;2.712;2023-03-04T03:57:55;101648.59;;;6.52;79.45
55291;BME280;41155;39.768;2.712;2023-03-04T04:00:20;101635.13;;;6.39;80.32
55291;BME280;41155;39.768;2.712;2023-03-04T04:02:46;101644.03;;;6.53;82.40
55291;BME280;41155;39.768;2.712;2023-03-04T04:05:12;101642.38;;;6.45;81.81
55291;BME280;41155;39.768;2.712;2023-03-04T04:07:37;101637.19;;;6.37;82.00
55291;BME280;41155;39.768;2.712;2023-03-04T04:10:04;101640.69;;;6.38;82.27
55291;BME280;41155;39.768;2.712;2023-03-04T04:12:30;101641.75;;;6.43;82.17
55291;BME280;41155;39.768;2.712;2023-03-04T04:14:56;101625.19;;;6.33;81.73
55291;BME280;41155;39.768;2.712;2023-03-04T04:17:22;101638.03;;;6.44;81.62
55291;BME280;41155;39.768;2.712;2023-03-04T04:19:47;101644.84;;;6.40;81.75
55291;BME280;41155;39.768;2.712;2023-03-04T04:22:15;101636.56;;;6.35;81.06
55291;BME280;41155;39.768;2.712;2023-03-04T04:24:41;101650.00;;;6.42;81.21
55291;BME280;41155;39.768;2.712;2023-03-04T04:27:07;101613.16;;;6.16;80.44
55291;BME280;41155;39.768;2.712;2023-03-04T04:29:32;101640.06;;;6.36;80.17
55291;BME280;41155;39.768;2.712;2023-03-04T04:31:58;101652.63;;;6.28;80.57
55291;BME280;41155;39.768;2.712;2023-03-04T04:34:24;101635.88;;;6.20;80.67
55291;BME280;41155;39.768;2.712;2023-03-04T04:36:50;101647.28;;;6.28;80.79
55291;BME280;41155;39.768;2.712;2023-03-04T04:39:15;101644.38;;;6.30;80.97
55291;BME280;41155;39.768;2.712;2023-03-04T04:41:42;101640.22;;;6.21;80.93
55291;BME280;41155;39.768;2.712;2023-03-04T04:44:08;101644.53;;;6.22;81.13
55291;BME280;41155;39.768;2.712;2023-03-04T04:46:35;101634.03;;;6.20;81.02
55291;BME280;41155;39.768;2.712;2023-03-04T04:49:01;101647.50;;;6.33;80.09
55291;BME280;41155;39.768;2.712;2023-03-04T04:51:26;101649.28;;;6.20;80.28
55291;BME280;41155;39.768;2.712;2023-03-04T04:53:52;101656.50;;;6.19;80.39
55291;BME280;41155;39.768;2.712;2023-03-04T04:56:20;101635.56;;;6.01;81.08
55291;BME280;41155;39.768;2.712;2023-03-04T04:58:46;101654.66;;;6.20;81.31
55291;BME280;41155;39.768;2.712;2023-03-04T05:01:13;101651.56;;;6.23;82.02
55291;BME280;41155;39.768;2.712;2023-03-04T05:03:39;101650.91;;;6.14;82.07
55291;BME280;41155;39.768;2.712;2023-03-04T05:06:07;101637.75;;;6.19;82.03
55291;BME280;41155;39.768;2.712;2023-03-04T05:08:33;101659.63;;;6.29;81.82
55291;BME280;41155;39.768;2.712;2023-03-04T05:10:59;101661.28;;;6.30;81.66
55291;BME280;41155;39.768;2.712;2023-03-04T05:13:24;101654.88;;;6.25;81.35
55291;BME280;41155;39.768;2.712;2023-03-04T05:15:51;101662.31;;;6.23;81.39
55291;BME280;41155;39.768;2.712;2023-03-04T05:18:18;101645.13;;;6.10;81.48
55291;BME280;41155;39.768;2.712;2023-03-04T05:20:43;101644.50;;;6.08;81.21
55291;BME280;41155;39.768;2.712;2023-03-04T05:23:09;101666.22;;;6.27;80.42
55291;BME280;41155;39.768;2.712;2023-03-04T05:25:34;101647.56;;;6.05;80.59
55291;BME280;41155;39.768;2.712;2023-03-04T05:28:00;101671.06;;;6.03;80.16
55291;BME280;41155;39.768;2.712;2023-03-04T05:30:26;101649.28;;;5.85;81.01
55291;BME280;41155;39.768;2.712;2023-03-04T05:32:52;101659.88;;;5.93;80.83
55291;BME280;41155;39.768;2.712;2023-03-04T05:35:17;101671.84;;;5.97;81.31
55291;BME280;41155;39.768;2.712;2023-03-04T05:37:43;101660.22;;;5.90;82.05
55291;BME280;41155;39.768;2.712;2023-03-04T05:40:09;101676.00;;;6.00;81.75
55291;BME280;41155;39.768;2.712;2023-03-04T05:42:34;101641.19;;;5.78;81.94
55291;BME280;41155;39.768;2.712;2023-03-04T05:45:00;101649.88;;;5.87;81.77
55291;BME280;41155;39.768;2.712;2023-03-04T05:47:25;101678.06;;;6.04;82.33
55291;BME280;41155;39.768;2.712;2023-03-04T05:49:51;101673.97;;;6.02;82.10
55291;BME280;41155;39.768;2.712;2023-03-04T05:52:16;101679.94;;;6.04;81.71
55291;BME280;41155;39.768;2.712;2023-03-04T05:54:42;101684.28;;;6.05;82.08
55291;BME280;41155;39.768;2.712;2023-03-04T05:57:07;101686.13;;;6.04;81.66
55291;BME280;41155;39.768;2.712;2023-03-04T05:59:33;101680.56;;;6.06;81.83
55291;BME280;41155;39.768;2.712;2023-03-04T06:01:58;101667.53;;;5.96;81.52
55291;BME280;41155;39.768;2.712;2023-03-04T06:04:24;101681.16;;;6.01;81.25
55291;BME280;41155;39.768;2.712;2023-03-04T06:06:49;101675.56;;;5.96;81.14
55291;BME280;41155;39.768;2.712;2023-03-04T06:09:15;101651.88;;;5.72;81.31
55291;BME280;41155;39.768;2.712;2023-03-04T06:11:40;101685.53;;;5.81;81.54
55291;BME280;41155;39.768;2.712;2023-03-04T06:14:06;101684.94;;;5.85;81.26
55291;BME280;41155;39.768;2.712;2023-03-04T06:16:31;101682.97;;;5.94;81.25
55291;BME280;41155;39.768;2.712;2023-03-04T06:18:57;101670.84;;;5.70;81.21
55291;BME280;41155;39.768;2.712;2023-03-04T06:21:23;101695.84;;;5.84;81.32
55291;BME280;41155;39.768;2.712;2023-03-04T06:23:48;101699.41;;;5.91;81.05
55291;BME280;41155;39.768;2.712;2023-03-04T06:26:14;101676.22;;;5.77;81.34
55291;BME280;41155;39.768;2.712;2023-03-04T06:28:43;101707.66;;;5.89;81.60
55291;BME280;41155;39.768;2.712;2023-03-04T06:31:09;101681.59;;;5.77;82.26
55291;BME280;41155;39.768;2.712;2023-03-04T06:33:35;101678.28;;;5.75;82.39
55291;BME280;41155;39.768;2.712;2023-03-04T06:36:01;101680.38;;;5.79;82.13
55291;BME280;41155;39.768;2.712;2023-03-04T06:38:26;101705.25;;;5.95;82.41
55291;BME280;41155;39.768;2.712;2023-03-04T06:40:52;101676.81;;;5.72;81.94
55291;BME280;41155;39.768;2.712;2023-03-04T06:43:18;101717.38;;;5.91;81.67
55291;BME280;41155;39.768;2.712;2023-03-04T06:45:44;101717.16;;;5.92;81.74
55291;BME280;41155;39.768;2.712;2023-03-04T06:48:10;101721.97;;;5.97;81.86
55291;BME280;41155;39.768;2.712;2023-03-04T06:50:35;101712.25;;;5.96;81.97
55291;BME280;41155;39.768;2.712;2023-03-04T06:53:01;101723.22;;;6.01;82.40
55291;BME280;41155;39.768;2.712;2023-03-04T06:55:26;101727.22;;;6.11;82.91
55291;BME280;41155;39.768;2.712;2023-03-04T06:57:51;101720.81;;;6.13;83.29
55291;BME280;41155;39.768;2.712;2023-03-04T07:00:17;101712.34;;;6.09;82.84
55291;BME280;41155;39.768;2.712;2023-03-04T07:02:43;101722.72;;;6.19;83.32
55291;BME280;41155;39.768;2.712;2023-03-04T07:05:10;101742.94;;;6.21;82.57
55291;BME280;41155;39.768;2.712;2023-03-04T07:07:36;101715.47;;;6.13;82.14
55291;BME280;41155;39.768;2.712;2023-03-04T07:10:02;101745.19;;;6.18;82.10
55291;BME280;41155;39.768;2.712;2023-03-04T07:12:28;101743.00;;;6.28;82.24
55291;BME280;41155;39.768;2.712;2023-03-04T07:14:53;101745.47;;;6.29;82.03
55291;BME280;41155;39.768;2.712;2023-03-04T07:17:19;101742.22;;;6.34;82.10
55291;BME280;41155;39.768;2.712;2023-03-04T07:19:44;101688.75;;;5.98;81.63
55291;BME280;41155;39.768;2.712;2023-03-04T07:22:10;101715.88;;;6.16;81.71
55291;BME280;41155;39.768;2.712;2023-03-04T07:24:35;101721.31;;;6.23;81.71
55291;BME280;41155;39.768;2.712;2023-03-04T07:27:01;101743.22;;;6.33;81.28
55291;BME280;41155;39.768;2.712;2023-03-04T07:29:26;101724.84;;;6.30;80.22
55291;BME280;41155;39.768;2.712;2023-03-04T07:31:52;101764.56;;;6.48;80.18
55291;BME280;41155;39.768;2.712;2023-03-04T07:34:17;101744.69;;;6.36;80.42
55291;BME280;41155;39.768;2.712;2023-03-04T07:36:43;101760.03;;;6.48;80.27
55291;BME280;41155;39.768;2.712;2023-03-04T07:39:10;101752.59;;;6.50;80.83
55291;BME280;41155;39.768;2.712;2023-03-04T07:41:37;101743.94;;;6.48;81.20
55291;BME280;41155;39.768;2.712;2023-03-04T07:44:05;101768.38;;;6.67;81.26
55291;BME280;41155;39.768;2.712;2023-03-04T07:46:31;101751.44;;;6.66;81.26
55291;BME280;41155;39.768;2.712;2023-03-04T07:48:56;101769.09;;;6.89;81.60
55291;BME280;41155;39.768;2.712;2023-03-04T07:51:24;101740.72;;;6.73;80.94
55291;BME280;41155;39.768;2.712;2023-03-04T07:53:52;101748.44;;;6.89;80.43
55291;BME280;41155;39.768;2.712;2023-03-04T07:56:20;101755.72;;;7.09;80.23
55291;BME280;41155;39.768;2.712;2023-03-04T07:58:47;101772.31;;;7.32;80.62
55291;BME280;41155;39.768;2.712;2023-03-04T08:01:20;101774.59;;;7.42;80.24
55291;BME280;41155;39.768;2.712;2023-03-04T08:03:46;101783.53;;;7.62;80.04
55291;BME280;41155;39.768;2.712;2023-03-04T08:06:15;101778.34;;;7.74;79.84
55291;BME280;41155;39.768;2.712;2023-03-04T08:08:42;101785.59;;;7.93;79.57
55291;BME280;41155;39.768;2.712;2023-03-04T08:11:10;101771.94;;;8.02;79.48
55291;BME280;41155;39.768;2.712;2023-03-04T08:13:36;101789.50;;;8.44;79.05
55291;BME280;41155;39.768;2.712;2023-03-04T08:16:02;101764.16;;;8.72;78.16
55291;BME280;41155;39.768;2.712;2023-03-04T08:18:28;101795.09;;;9.39;76.64
55291;BME280;41155;39.768;2.712;2023-03-04T08:20:54;101783.88;;;9.99;74.51
55291;BME280;41155;39.768;2.712;2023-03-04T08:23:19;101793.56;;;11.05;71.57
55291;BME280;41155;39.768;2.712;2023-03-04T08:25:45;101792.91;;;12.53;66.86
55291;BME280;41155;39.768;2.712;2023-03-04T08:28:11;101783.75;;;14.02;62.45
55291;BME280;41155;39.768;2.712;2023-03-04T08:30:40;101794.59;;;15.51;58.03
55291;BME280;41155;39.768;2.712;2023-03-04T08:33:05;101783.75;;;16.73;54.08
55291;BME280;41155;39.768;2.712;2023-03-04T08:35:32;101785.09;;;17.90;51.00
55291;BME280;41155;39.768;2.712;2023-03-04T08:37:57;101785.59;;;19.03;47.35
55291;BME280;41155;39.768;2.712;2023-03-04T08:40:23;101782.53;;;19.93;44.14
55291;BME280;41155;39.768;2.712;2023-03-04T08:42:50;101794.88;;;20.92;42.22
55291;BME280;41155;39.768;2.712;2023-03-04T08:45:16;101786.59;;;21.86;40.07
55291;BME280;41155;39.768;2.712;2023-03-04T08:47:42;101791.50;;;22.64;37.69
55291;BME280;41155;39.768;2.712;2023-03-04T08:50:08;101783.91;;;23.47;35.92
55291;BME280;41155;39.768;2.712;2023-03-04T08:52:33;101794.47;;;24.30;34.13
55291;BME280;41155;39.768;2.712;2023-03-04T08:55:00;101789.50;;;25.07;32.79
55291;BME280;41155;39.768;2.712;2023-03-04T08:57:25;101800.44;;;25.55;31.19
55291;BME280;41155;39.768;2.712;2023-03-04T08:59:51;101795.88;;;25.51;30.22
55291;BME280;41155;39.768;2.712;2023-03-04T09:02:16;101804.75;;;26.08;29.52
55291;BME280;41155;39.768;2.712;2023-03-04T09:04:42;101794.97;;;26.11;29.45
55291;BME280;41155;39.768;2.712;2023-03-04T09:07:07;101791.47;;;25.06;29.92
55291;BME280;41155;39.768;2.712;2023-03-04T09:09:34;101794.19;;;24.80;29.93
55291;BME280;41155;39.768;2.712;2023-03-04T09:11:59;101765.50;;;23.79;32.09
55291;BME280;41155;39.768;2.712;2023-03-04T09:14:25;101795.53;;;22.94;33.24
55291;BME280;41155;39.768;2.712;2023-03-04T09:16:51;101809.66;;;22.37;34.94
55291;BME280;41155;39.768;2.712;2023-03-04T09:19:16;101799.31;;;21.82;35.50
55291;BME280;41155;39.768;2.712;2023-03-04T09:21:42;101801.81;;;21.27;37.23
55291;BME280;41155;39.768;2.712;2023-03-04T09:24:07;101799.75;;;20.76;39.23
55291;BME280;41155;39.768;2.712;2023-03-04T09:26:33;101791.47;;;19.70;40.05
55291;BME280;41155;39.768;2.712;2023-03-04T09:29:00;101802.06;;;19.42;39.71
55291;BME280;41155;39.768;2.712;2023-03-04T09:31:26;101779.75;;;18.60;41.24
55291;BME280;41155;39.768;2.712;2023-03-04T09:33:53;101797.00;;;18.60;42.54
55291;BME280;41155;39.768;2.712;2023-03-04T09:36:19;101797.56;;;18.42;43.67
55291;BME280;41155;39.768;2.712;2023-03-04T09:38:44;101761.84;;;18.18;42.50
55291;BME280;41155;39.768;2.712;2023-03-04T09:41:24;101798.38;;;18.52;42.44
55291;BME280;41155;39.768;2.712;2023-03-04T09:43:52;101800.31;;;18.37;42.64
55291;BME280;41155;39.768;2.712;2023-03-04T09:46:28;101761.53;;;18.35;42.51
55291;BME280;41155;39.768;2.712;2023-03-04T09:48:56;101743.91;;;18.61;41.91
55291;BME280;41155;39.768;2.712;2023-03-04T09:51:30;101797.78;;;19.26;41.12
55291;BME280;41155;39.768;2.712;2023-03-04T09:54:08;101804.53;;;19.83;40.98
55291;BME280;41155;39.768;2.712;2023-03-04T09:56:37;101786.97;;;19.84;40.70
55291;BME280;41155;39.768;2.712;2023-03-04T10:04:38;101796.03;;;25.37;31.00
55291;BME280;41155;39.768;2.712;2023-03-04T10:07:14;101789.56;;;26.91;28.46
55291;BME280;41155;39.768;2.712;2023-03-04T10:09:48;101790.88;;;26.55;27.63
55291;BME280;41155;39.768;2.712;2023-03-04T10:12:21;101782.44;;;28.23;26.34
55291;BME280;41155;39.768;2.712;2023-03-04T10:15:06;101792.13;;;29.15;24.50
55291;BME280;41155;39.768;2.712;2023-03-04T10:17:40;101792.00;;;29.52;24.00
55291;BME280;41155;39.768;2.712;2023-03-04T10:20:26;101787.22;;;30.92;22.32
55291;BME280;41155;39.768;2.712;2023-03-04T10:23:08;101778.53;;;31.94;21.28
55291;BME280;41155;39.768;2.712;2023-03-04T10:25:38;101778.69;;;32.05;21.03
55291;BME280;41155;39.768;2.712;2023-03-04T10:28:17;101797.44;;;32.04;19.97
55291;BME280;41155;39.768;2.712;2023-03-04T10:31:31;101789.16;;;32.84;19.30
55291;BME280;41155;39.768;2.712;2023-03-04T10:33:48;101789.06;;;32.80;19.13
55291;BME280;41155;39.768;2.712;2023-03-04T10:39:04;101765.13;;;32.83;18.79
55291;BME280;41155;39.768;2.712;2023-03-04T10:41:31;101794.50;;;32.96;19.19
55291;BME280;41155;39.768;2.712;2023-03-04T10:46:42;101783.09;;;34.76;17.52
55291;BME280;41155;39.768;2.712;2023-03-04T10:49:12;101776.25;;;35.57;17.11
55291;BME280;41155;39.768;2.712;2023-03-04T10:51:47;101810.84;;;36.29;16.09
55291;BME280;41155;39.768;2.712;2023-03-04T10:54:39;101810.06;;;36.61;15.48
55291;BME280;41155;39.768;2.712;2023-03-04T10:57:17;101806.75;;;35.62;15.66
55291;BME280;41155;39.768;2.712;2023-03-04T11:02:44;101812.84;;;36.07;15.79
55291;BME280;41155;39.768;2.712;2023-03-04T11:05:21;101802.66;;;37.14;15.37
55291;BME280;41155;39.768;2.712;2023-03-04T11:07:55;101823.56;;;37.90;14.60
55291;BME280;41155;39.768;2.712;2023-03-04T11:10:24;101812.78;;;35.79;16.05
55291;BME280;41155;39.768;2.712;2023-03-04T11:15:55;101813.28;;;36.06;16.57
55291;BME280;41155;39.768;2.712;2023-03-04T11:18:40;101796.38;;;36.38;15.68
55291;BME280;41155;39.768;2.712;2023-03-04T11:21:14;101789.88;;;36.84;15.33
55291;BME280;41155;39.768;2.712;2023-03-04T11:23:47;101804.06;;;37.58;15.13
55291;BME280;41155;39.768;2.712;2023-03-04T11:26:18;101803.88;;;37.86;14.05
55291;BME280;41155;39.768;2.712;2023-03-04T11:31:31;101803.44;;;37.95;14.17
55291;BME280;41155;39.768;2.712;2023-03-04T11:34:26;101786.84;;;38.08;14.28
55291;BME280;41155;39.768;2.712;2023-03-04T11:36:57;101799.00;;;37.97;13.53
55291;BME280;41155;39.768;2.712;2023-03-04T11:44:55;101771.13;;;37.51;14.35
55291;BME280;41155;39.768;2.712;2023-03-04T11:51:04;101761.81;;;39.20;13.61
55291;BME280;41155;39.768;2.712;2023-03-04T11:53:32;101747.59;;;39.85;13.21
55291;BME280;41155;39.768;2.712;2023-03-04T12:02:10;101731.16;;;40.23;12.36
55291;BME280;41155;39.768;2.712;2023-03-04T12:07:45;101748.78;;;40.94;11.94
55291;BME280;41155;39.768;2.712;2023-03-04T12:24:33;101720.34;;;38.52;13.44
55291;BME280;41155;39.768;2.712;2023-03-04T12:27:36;101683.94;;;39.22;13.35
55291;BME280;41155;39.768;2.712;2023-03-04T12:35:40;101700.16;;;40.59;11.96
55291;BME280;41155;39.768;2.712;2023-03-04T12:38:32;101708.88;;;39.82;12.70
55291;BME280;41155;39.768;2.712;2023-03-04T12:46:30;101706.38;;;39.06;13.02
55291;BME280;41155;39.768;2.712;2023-03-04T12:49:14;101702.22;;;38.83;13.32
55291;BME280;41155;39.768;2.712;2023-03-04T12:59:19;101679.53;;;37.25;13.94
55291;BME280;41155;39.768;2.712;2023-03-04T13:04:56;101662.59;;;38.60;13.08
55291;BME280;41155;39.768;2.712;2023-03-04T13:10:06;101644.28;;;38.03;13.59
55291;BME280;41155;39.768;2.712;2023-03-04T13:12:50;101669.63;;;36.95;14.27
55291;BME280;41155;39.768;2.712;2023-03-04T13:15:35;101662.09;;;37.96;14.16
55291;BME280;41155;39.768;2.712;2023-03-04T13:21:04;101651.19;;;37.98;13.70
55291;BME280;41155;39.768;2.712;2023-03-04T13:23:30;101646.72;;;38.05;13.79
55291;BME280;41155;39.768;2.712;2023-03-04T13:28:30;101652.34;;;36.93;14.33
55291;BME280;41155;39.768;2.712;2023-03-04T13:36:25;101643.44;;;35.53;14.85
55291;BME280;41155;39.768;2.712;2023-03-04T13:39:03;101643.00;;;35.97;13.67
55291;BME280;41155;39.768;2.712;2023-03-04T13:44:00;101618.78;;;34.60;15.62
55291;BME280;41155;39.768;2.712;2023-03-04T14:04:20;101619.03;;;31.53;17.48
55291;BME280;41155;39.768;2.712;2023-03-04T14:06:49;101607.88;;;31.53;16.86
55291;BME280;41155;39.768;2.712;2023-03-04T14:09:19;101606.66;;;31.50;17.68
55291;BME280;41155;39.768;2.712;2023-03-04T14:11:46;101609.38;;;30.46;18.70
55291;BME280;41155;39.768;2.712;2023-03-04T14:14:19;101606.03;;;28.94;20.21
55291;BME280;41155;39.768;2.712;2023-03-04T14:19:37;101587.31;;;27.98;21.22
55291;BME280;41155;39.768;2.712;2023-03-04T14:22:19;101616.47;;;27.80;21.88
55291;BME280;41155;39.768;2.712;2023-03-04T14:27:32;101595.03;;;27.10;22.72
55291;BME280;41155;39.768;2.712;2023-03-04T14:30:03;101608.97;;;26.47;23.25
55291;BME280;41155;39.768;2.712;2023-03-04T14:32:30;101569.69;;;25.74;23.39
55291;BME280;41155;39.768;2.712;2023-03-04T14:35:05;101590.63;;;25.45;23.08
55291;BME280;41155;39.768;2.712;2023-03-04T14:38:26;101587.44;;;24.12;25.53
55291;BME280;41155;39.768;2.712;2023-03-04T14:41:10;101559.13;;;23.32;26.22
55291;BME280;41155;39.768;2.712;2023-03-04T14:46:12;101578.56;;;22.23;28.07
55291;BME280;41155;39.768;2.712;2023-03-04T14:48:46;101585.19;;;22.22;28.75
55291;BME280;41155;39.768;2.712;2023-03-04T14:51:29;101567.97;;;22.03;29.48
55291;BME280;41155;39.768;2.712;2023-03-04T14:53:55;101575.41;;;22.02;28.19
55291;BME280;41155;39.768;2.712;2023-03-04T14:56:29;101572.06;;;21.92;29.21
55291;BME280;41155;39.768;2.712;2023-03-04T14:58:56;101572.47;;;21.71;29.74
55291;BME280;41155;39.768;2.712;2023-03-04T15:01:31;101567.38;;;21.51;30.64